sensor_id;sensor_type;location;lat;lon;timestamp;P1;durP1;ratioP1;P2;durP2;ratioP2
51304;SDS011;37392;50.964;6.952;2023-08-31T00:00:31;17.88;;;4.03;;
51304;SDS011;37392;50.964;6.952;2023-08-31T00:02:59;12.73;;;4.60;;
51304;SDS011;37392;50.964;6.952;2023-08-31T00:05:25;14.32;;;4.82;;
51304;SDS011;37392;50.964;6.952;2023-08-31T00:07:53;15.25;;;3.97;;
51304;SDS011;37392;50.964;6.952;2023-08-31T00:10:19;11.05;;;3.50;;
51304;SDS011;37392;50.964;6.952;2023-08-31T00:12:45;9.13;;;3.45;;
51304;SDS011;37392;50.964;6.952;2023-08-31T00:15:10;14.07;;;3.72;;
51304;SDS011;37392;50.964;6.952;2023-08-31T00:17:36;7.25;;;3.05;;
51304;SDS011;37392;50.964;6.952;2023-08-31T00:20:03;6.32;;;3.63;;
51304;SDS011;37392;50.964;6.952;2023-08-31T00:22:36;8.20;;;3.03;;
51304;SDS011;37392;50.964;6.952;2023-08-31T00:25:03;16.42;;;5.03;;
51304;SDS011;37392;50.964;6.952;2023-08-31T00:27:30;10.23;;;4.20;;
51304;SDS011;37392;50.964;6.952;2023-08-31T00:29:56;12.45;;;3.13;;
51304;SDS011;37392;50.964;6.952;2023-08-31T00:32:22;6.93;;;3.10;;
51304;SDS011;37392;50.964;6.952;2023-08-31T00:34:48;7.25;;;3.60;;
51304;SDS011;37392;50.964;6.952;2023-08-31T00:37:15;13.05;;;3.47;;
51304;SDS011;37392;50.964;6.952;2023-08-31T00:39:40;9.73;;;3.33;;
51304;SDS011;37392;50.964;6.952;2023-08-31T00:42:06;10.30;;;4.28;;
51304;SDS011;37392;50.964;6.952;2023-08-31T00:44:32;6.25;;;3.67;;
51304;SDS011;37392;50.964;6.952;2023-08-31T00:46:58;10.63;;;4.00;;
51304;SDS011;37392;50.964;6.952;2023-08-31T00:49:24;16.98;;;5.13;;
51304;SDS011;37392;50.964;6.952;2023-08-31T00:51:49;15.05;;;3.78;;
51304;SDS011;37392;50.964;6.952;2023-08-31T00:54:16;12.50;;;3.88;;
51304;SDS011;37392;50.964;6.952;2023-08-31T00:56:42;9.23;;;3.30;;
51304;SDS011;37392;50.964;6.952;2023-08-31T00:59:08;12.50;;;4.95;;
51304;SDS011;37392;50.964;6.952;2023-08-31T01:01:39;5.57;;;2.83;;
51304;SDS011;37392;50.964;6.952;2023-08-31T01:10:31;16.00;;;3.83;;
51304;SDS011;37392;50.964;6.952;2023-08-31T01:13:10;7.40;;;3.83;;
51304;SDS011;37392;50.964;6.952;2023-08-31T01:15:49;12.45;;;4.32;;
51304;SDS011;37392;50.964;6.952;2023-08-31T01:18:18;17.02;;;4.93;;
51304;SDS011;37392;50.964;6.952;2023-08-31T01:23:54;11.05;;;3.50;;
51304;SDS011;37392;50.964;6.952;2023-08-31T01:26:23;14.32;;;4.90;;
51304;SDS011;37392;50.964;6.952;2023-08-31T01:28:49;12.05;;;5.78;;
51304;SDS011;37392;50.964;6.952;2023-08-31T01:31:16;10.32;;;3.90;;
51304;SDS011;37392;50.964;6.952;2023-08-31T01:33:42;9.85;;;4.53;;
51304;SDS011;37392;50.964;6.952;2023-08-31T01:36:10;18.67;;;5.25;;
51304;SDS011;37392;50.964;6.952;2023-08-31T01:38:50;9.65;;;4.60;;
51304;SDS011;37392;50.964;6.952;2023-08-31T01:41:41;12.93;;;5.28;;
51304;SDS011;37392;50.964;6.952;2023-08-31T01:44:12;11.05;;;5.32;;
51304;SDS011;37392;50.964;6.952;2023-08-31T01:46:41;17.02;;;5.72;;
51304;SDS011;37392;50.964;6.952;2023-08-31T01:49:11;10.35;;;4.10;;
51304;SDS011;37392;50.964;6.952;2023-08-31T01:51:36;9.90;;;4.20;;
51304;SDS011;37392;50.964;6.952;2023-08-31T01:54:02;15.77;;;4.65;;
51304;SDS011;37392;50.964;6.952;2023-08-31T01:56:28;10.52;;;5.60;;
51304;SDS011;37392;50.964;6.952;2023-08-31T01:58:53;19.40;;;5.28;;
51304;SDS011;37392;50.964;6.952;2023-08-31T02:01:19;15.02;;;5.28;;
51304;SDS011;37392;50.964;6.952;2023-08-31T02:03:45;11.60;;;4.75;;
51304;SDS011;37392;50.964;6.952;2023-08-31T02:06:11;9.15;;;4.60;;
51304;SDS011;37392;50.964;6.952;2023-08-31T02:08:36;9.63;;;4.13;;
51304;SDS011;37392;50.964;6.952;2023-08-31T02:11:02;8.10;;;4.28;;
51304;SDS011;37392;50.964;6.952;2023-08-31T02:13:27;18.10;;;5.25;;
51304;SDS011;37392;50.964;6.952;2023-08-31T02:15:55;13.07;;;5.03;;
51304;SDS011;37392;50.964;6.952;2023-08-31T02:18:20;12.25;;;4.95;;
51304;SDS011;37392;50.964;6.952;2023-08-31T02:20:46;19.42;;;5.60;;
51304;SDS011;37392;50.964;6.952;2023-08-31T02:23:11;7.68;;;4.57;;
51304;SDS011;37392;50.964;6.952;2023-08-31T02:25:37;11.93;;;4.72;;
51304;SDS011;37392;50.964;6.952;2023-08-31T02:28:03;10.93;;;4.65;;
51304;SDS011;37392;50.964;6.952;2023-08-31T02:30:29;7.03;;;4.03;;
51304;SDS011;37392;50.964;6.952;2023-08-31T02:32:54;8.23;;;5.07;;
51304;SDS011;37392;50.964;6.952;2023-08-31T02:35:20;8.15;;;4.07;;
51304;SDS011;37392;50.964;6.952;2023-08-31T02:37:45;14.38;;;4.63;;
51304;SDS011;37392;50.964;6.952;2023-08-31T02:40:11;4.88;;;3.33;;
51304;SDS011;37392;50.964;6.952;2023-08-31T02:42:37;6.05;;;4.10;;
51304;SDS011;37392;50.964;6.952;2023-08-31T02:45:02;9.95;;;4.03;;
51304;SDS011;37392;50.964;6.952;2023-08-31T02:47:29;9.10;;;3.33;;
51304;SDS011;37392;50.964;6.952;2023-08-31T02:49:54;6.35;;;3.47;;
51304;SDS011;37392;50.964;6.952;2023-08-31T02:52:20;9.52;;;3.80;;
51304;SDS011;37392;50.964;6.952;2023-08-31T02:54:45;10.85;;;4.88;;
51304;SDS011;37392;50.964;6.952;2023-08-31T02:57:11;5.57;;;3.95;;
51304;SDS011;37392;50.964;6.952;2023-08-31T02:59:36;8.32;;;3.92;;
51304;SDS011;37392;50.964;6.952;2023-08-31T03:02:05;8.65;;;3.47;;
51304;SDS011;37392;50.964;6.952;2023-08-31T03:04:30;6.88;;;3.60;;
51304;SDS011;37392;50.964;6.952;2023-08-31T03:06:56;8.50;;;3.28;;
51304;SDS011;37392;50.964;6.952;2023-08-31T03:09:22;10.52;;;4.28;;
51304;SDS011;37392;50.964;6.952;2023-08-31T03:11:47;19.50;;;3.47;;
51304;SDS011;37392;50.964;6.952;2023-08-31T03:14:13;8.13;;;3.67;;
51304;SDS011;37392;50.964;6.952;2023-08-31T03:16:38;10.70;;;4.47;;
51304;SDS011;37392;50.964;6.952;2023-08-31T03:19:04;6.47;;;3.70;;
51304;SDS011;37392;50.964;6.952;2023-08-31T03:21:30;13.75;;;5.03;;
51304;SDS011;37392;50.964;6.952;2023-08-31T03:23:56;9.93;;;4.53;;
51304;SDS011;37392;50.964;6.952;2023-08-31T03:26:21;11.40;;;6.10;;
51304;SDS011;37392;50.964;6.952;2023-08-31T03:28:46;12.27;;;4.78;;
51304;SDS011;37392;50.964;6.952;2023-08-31T03:31:12;15.63;;;4.60;;
51304;SDS011;37392;50.964;6.952;2023-08-31T03:33:38;7.97;;;4.05;;
51304;SDS011;37392;50.964;6.952;2023-08-31T03:36:03;15.30;;;4.15;;
51304;SDS011;37392;50.964;6.952;2023-08-31T03:38:30;6.03;;;4.13;;
51304;SDS011;37392;50.964;6.952;2023-08-31T03:40:57;12.10;;;4.25;;
51304;SDS011;37392;50.964;6.952;2023-08-31T03:43:23;4.97;;;3.95;;
51304;SDS011;37392;50.964;6.952;2023-08-31T03:45:48;10.95;;;5.25;;
51304;SDS011;37392;50.964;6.952;2023-08-31T03:48:20;13.85;;;4.53;;
51304;SDS011;37392;50.964;6.952;2023-08-31T03:50:48;8.35;;;3.75;;
51304;SDS011;37392;50.964;6.952;2023-08-31T03:53:16;10.50;;;5.97;;
51304;SDS011;37392;50.964;6.952;2023-08-31T03:55:41;9.40;;;4.25;;
51304;SDS011;37392;50.964;6.952;2023-08-31T03:58:07;6.63;;;3.97;;
51304;SDS011;37392;50.964;6.952;2023-08-31T04:00:32;7.90;;;4.03;;
51304;SDS011;37392;50.964;6.952;2023-08-31T04:02:58;6.90;;;3.53;;
51304;SDS011;37392;50.964;6.952;2023-08-31T04:05:23;7.70;;;4.43;;
51304;SDS011;37392;50.964;6.952;2023-08-31T04:07:49;6.20;;;3.70;;
51304;SDS011;37392;50.964;6.952;2023-08-31T04:10:14;9.07;;;3.50;;
51304;SDS011;37392;50.964;6.952;2023-08-31T04:12:40;7.60;;;3.92;;
51304;SDS011;37392;50.964;6.952;2023-08-31T04:15:08;8.10;;;3.88;;
51304;SDS011;37392;50.964;6.952;2023-08-31T04:17:34;10.55;;;3.58;;
51304;SDS011;37392;50.964;6.952;2023-08-31T04:19:59;15.48;;;4.50;;
51304;SDS011;37392;50.964;6.952;2023-08-31T04:22:25;10.75;;;3.70;;
51304;SDS011;37392;50.964;6.952;2023-08-31T04:24:52;5.85;;;3.67;;
51304;SDS011;37392;50.964;6.952;2023-08-31T04:27:18;8.20;;;3.50;;
51304;SDS011;37392;50.964;6.952;2023-08-31T04:29:44;11.02;;;3.78;;
51304;SDS011;37392;50.964;6.952;2023-08-31T04:32:09;7.25;;;3.78;;
51304;SDS011;37392;50.964;6.952;2023-08-31T04:34:35;17.20;;;3.72;;
51304;SDS011;37392;50.964;6.952;2023-08-31T04:37:00;9.90;;;3.42;;
51304;SDS011;37392;50.964;6.952;2023-08-31T04:39:27;10.18;;;4.05;;
51304;SDS011;37392;50.964;6.952;2023-08-31T04:41:52;10.88;;;3.65;;
51304;SDS011;37392;50.964;6.952;2023-08-31T04:44:18;6.97;;;3.25;;
51304;SDS011;37392;50.964;6.952;2023-08-31T04:46:43;13.85;;;3.75;;
51304;SDS011;37392;50.964;6.952;2023-08-31T04:49:08;7.40;;;3.58;;
51304;SDS011;37392;50.964;6.952;2023-08-31T04:51:34;6.43;;;3.40;;
51304;SDS011;37392;50.964;6.952;2023-08-31T04:54:04;11.20;;;3.45;;
51304;SDS011;37392;50.964;6.952;2023-08-31T04:56:30;6.55;;;3.60;;
51304;SDS011;37392;50.964;6.952;2023-08-31T04:58:57;11.68;;;3.35;;
51304;SDS011;37392;50.964;6.952;2023-08-31T05:01:23;14.93;;;4.13;;
51304;SDS011;37392;50.964;6.952;2023-08-31T05:03:48;6.88;;;3.28;;
51304;SDS011;37392;50.964;6.952;2023-08-31T05:06:14;10.07;;;4.47;;
51304;SDS011;37392;50.964;6.952;2023-08-31T05:08:39;15.00;;;3.58;;
51304;SDS011;37392;50.964;6.952;2023-08-31T05:11:05;8.40;;;4.07;;
51304;SDS011;37392;50.964;6.952;2023-08-31T05:13:30;10.40;;;4.63;;
51304;SDS011;37392;50.964;6.952;2023-08-31T05:15:56;10.98;;;3.15;;
51304;SDS011;37392;50.964;6.952;2023-08-31T05:18:21;7.75;;;3.90;;
51304;SDS011;37392;50.964;6.952;2023-08-31T05:20:47;7.05;;;3.55;;
51304;SDS011;37392;50.964;6.952;2023-08-31T05:23:13;8.30;;;3.58;;
51304;SDS011;37392;50.964;6.952;2023-08-31T05:25:46;8.02;;;3.95;;
51304;SDS011;37392;50.964;6.952;2023-08-31T05:28:11;10.77;;;3.75;;
51304;SDS011;37392;50.964;6.952;2023-08-31T05:30:38;12.25;;;3.72;;
51304;SDS011;37392;50.964;6.952;2023-08-31T05:33:13;8.05;;;3.53;;
51304;SDS011;37392;50.964;6.952;2023-08-31T05:35:39;12.23;;;4.13;;
51304;SDS011;37392;50.964;6.952;2023-08-31T05:38:04;11.55;;;3.83;;
51304;SDS011;37392;50.964;6.952;2023-08-31T05:40:30;8.77;;;3.75;;
51304;SDS011;37392;50.964;6.952;2023-08-31T05:42:56;8.70;;;3.50;;
51304;SDS011;37392;50.964;6.952;2023-08-31T05:45:21;12.23;;;3.35;;
51304;SDS011;37392;50.964;6.952;2023-08-31T05:47:47;8.15;;;3.08;;
51304;SDS011;37392;50.964;6.952;2023-08-31T05:50:12;11.13;;;3.58;;
51304;SDS011;37392;50.964;6.952;2023-08-31T05:52:38;9.75;;;3.20;;
51304;SDS011;37392;50.964;6.952;2023-08-31T05:55:03;10.30;;;2.95;;
51304;SDS011;37392;50.964;6.952;2023-08-31T05:57:30;9.88;;;3.45;;
51304;SDS011;37392;50.964;6.952;2023-08-31T05:59:55;7.80;;;2.53;;
51304;SDS011;37392;50.964;6.952;2023-08-31T06:02:21;8.35;;;3.20;;
51304;SDS011;37392;50.964;6.952;2023-08-31T06:04:46;8.55;;;2.88;;
51304;SDS011;37392;50.964;6.952;2023-08-31T06:07:12;6.90;;;2.65;;
51304;SDS011;37392;50.964;6.952;2023-08-31T06:09:37;11.05;;;2.67;;
51304;SDS011;37392;50.964;6.952;2023-08-31T06:12:03;6.32;;;2.25;;
51304;SDS011;37392;50.964;6.952;2023-08-31T06:14:30;8.68;;;3.42;;
51304;SDS011;37392;50.964;6.952;2023-08-31T06:16:55;7.38;;;2.85;;
51304;SDS011;37392;50.964;6.952;2023-08-31T06:19:21;5.60;;;2.63;;
51304;SDS011;37392;50.964;6.952;2023-08-31T06:21:46;8.85;;;2.60;;
51304;SDS011;37392;50.964;6.952;2023-08-31T06:24:13;8.40;;;3.22;;
51304;SDS011;37392;50.964;6.952;2023-08-31T06:26:39;9.90;;;2.60;;
51304;SDS011;37392;50.964;6.952;2023-08-31T06:29:05;7.18;;;2.80;;
51304;SDS011;37392;50.964;6.952;2023-08-31T06:31:30;7.25;;;2.90;;
51304;SDS011;37392;50.964;6.952;2023-08-31T06:33:56;5.80;;;2.10;;
51304;SDS011;37392;50.964;6.952;2023-08-31T06:36:23;10.85;;;2.60;;
51304;SDS011;37392;50.964;6.952;2023-08-31T06:38:49;8.00;;;2.78;;
51304;SDS011;37392;50.964;6.952;2023-08-31T06:41:14;3.88;;;1.75;;
51304;SDS011;37392;50.964;6.952;2023-08-31T06:43:40;14.68;;;2.97;;
51304;SDS011;37392;50.964;6.952;2023-08-31T06:46:06;5.25;;;2.17;;
51304;SDS011;37392;50.964;6.952;2023-08-31T06:48:32;6.75;;;2.20;;
51304;SDS011;37392;50.964;6.952;2023-08-31T06:50:57;6.68;;;2.47;;
51304;SDS011;37392;50.964;6.952;2023-08-31T06:53:23;11.30;;;2.80;;
51304;SDS011;37392;50.964;6.952;2023-08-31T06:55:49;13.05;;;4.13;;
51304;SDS011;37392;50.964;6.952;2023-08-31T06:58:15;5.35;;;2.20;;
51304;SDS011;37392;50.964;6.952;2023-08-31T07:00:40;9.50;;;3.35;;
51304;SDS011;37392;50.964;6.952;2023-08-31T07:03:06;14.23;;;5.80;;
51304;SDS011;37392;50.964;6.952;2023-08-31T07:05:34;13.63;;;3.95;;
51304;SDS011;37392;50.964;6.952;2023-08-31T07:10:27;7.25;;;2.58;;
51304;SDS011;37392;50.964;6.952;2023-08-31T07:12:53;9.13;;;2.80;;
51304;SDS011;37392;50.964;6.952;2023-08-31T07:15:18;7.82;;;2.72;;
51304;SDS011;37392;50.964;6.952;2023-08-31T07:17:44;7.75;;;2.83;;
51304;SDS011;37392;50.964;6.952;2023-08-31T07:20:10;11.45;;;2.90;;
51304;SDS011;37392;50.964;6.952;2023-08-31T07:22:37;7.47;;;2.60;;
51304;SDS011;37392;50.964;6.952;2023-08-31T07:25:03;9.07;;;3.08;;
51304;SDS011;37392;50.964;6.952;2023-08-31T07:27:30;7.35;;;3.35;;
51304;SDS011;37392;50.964;6.952;2023-08-31T07:29:56;13.57;;;3.28;;
51304;SDS011;37392;50.964;6.952;2023-08-31T07:32:22;8.38;;;3.22;;
51304;SDS011;37392;50.964;6.952;2023-08-31T07:34:47;9.27;;;2.42;;
51304;SDS011;37392;50.964;6.952;2023-08-31T07:37:13;9.70;;;2.75;;
51304;SDS011;37392;50.964;6.952;2023-08-31T07:39:39;7.95;;;2.40;;
51304;SDS011;37392;50.964;6.952;2023-08-31T07:42:05;15.10;;;3.20;;
51304;SDS011;37392;50.964;6.952;2023-08-31T07:44:30;6.68;;;2.30;;
51304;SDS011;37392;50.964;6.952;2023-08-31T07:46:56;10.50;;;2.42;;
51304;SDS011;37392;50.964;6.952;2023-08-31T07:49:22;3.53;;;1.80;;
51304;SDS011;37392;50.964;6.952;2023-08-31T07:51:47;5.97;;;2.30;;
51304;SDS011;37392;50.964;6.952;2023-08-31T07:54:19;4.00;;;2.08;;
51304;SDS011;37392;50.964;6.952;2023-08-31T07:56:47;9.93;;;2.35;;
51304;SDS011;37392;50.964;6.952;2023-08-31T07:59:13;5.85;;;2.03;;
51304;SDS011;37392;50.964;6.952;2023-08-31T08:01:39;5.10;;;2.47;;
51304;SDS011;37392;50.964;6.952;2023-08-31T08:04:06;6.53;;;2.83;;
51304;SDS011;37392;50.964;6.952;2023-08-31T08:06:32;11.05;;;2.22;;
51304;SDS011;37392;50.964;6.952;2023-08-31T08:08:57;8.00;;;1.70;;
51304;SDS011;37392;50.964;6.952;2023-08-31T08:11:23;7.65;;;2.55;;
51304;SDS011;37392;50.964;6.952;2023-08-31T08:13:48;9.40;;;2.55;;
51304;SDS011;37392;50.964;6.952;2023-08-31T08:16:14;7.97;;;2.33;;
51304;SDS011;37392;50.964;6.952;2023-08-31T08:18:40;6.35;;;2.47;;
51304;SDS011;37392;50.964;6.952;2023-08-31T08:21:06;5.75;;;2.33;;
51304;SDS011;37392;50.964;6.952;2023-08-31T08:23:31;9.10;;;2.58;;
51304;SDS011;37392;50.964;6.952;2023-08-31T08:25:57;7.80;;;2.08;;
51304;SDS011;37392;50.964;6.952;2023-08-31T08:28:25;9.07;;;2.75;;
51304;SDS011;37392;50.964;6.952;2023-08-31T08:30:51;8.68;;;2.40;;
51304;SDS011;37392;50.964;6.952;2023-08-31T08:33:17;12.85;;;3.72;;
51304;SDS011;37392;50.964;6.952;2023-08-31T08:35:43;6.85;;;2.00;;
51304;SDS011;37392;50.964;6.952;2023-08-31T08:38:08;4.70;;;2.25;;
51304;SDS011;37392;50.964;6.952;2023-08-31T08:40:34;9.15;;;1.77;;
51304;SDS011;37392;50.964;6.952;2023-08-31T08:43:00;4.50;;;1.50;;
51304;SDS011;37392;50.964;6.952;2023-08-31T08:45:26;4.32;;;1.90;;
51304;SDS011;37392;50.964;6.952;2023-08-31T08:48:02;8.68;;;2.20;;
51304;SDS011;37392;50.964;6.952;2023-08-31T08:50:31;7.07;;;2.33;;
51304;SDS011;37392;50.964;6.952;2023-08-31T08:52:59;10.10;;;2.17;;
51304;SDS011;37392;50.964;6.952;2023-08-31T08:55:28;5.00;;;1.83;;
51304;SDS011;37392;50.964;6.952;2023-08-31T08:57:55;8.65;;;3.25;;
51304;SDS011;37392;50.964;6.952;2023-08-31T09:00:22;8.27;;;2.90;;
51304;SDS011;37392;50.964;6.952;2023-08-31T09:02:48;9.02;;;3.80;;
51304;SDS011;37392;50.964;6.952;2023-08-31T09:05:13;9.48;;;2.42;;
51304;SDS011;37392;50.964;6.952;2023-08-31T09:07:46;4.88;;;2.08;;
51304;SDS011;37392;50.964;6.952;2023-08-31T09:13:09;4.60;;;1.80;;
51304;SDS011;37392;50.964;6.952;2023-08-31T09:15:44;5.32;;;1.90;;
51304;SDS011;37392;50.964;6.952;2023-08-31T09:20:55;8.88;;;2.67;;
51304;SDS011;37392;50.964;6.952;2023-08-31T09:23:21;13.85;;;2.20;;
51304;SDS011;37392;50.964;6.952;2023-08-31T09:25:48;6.70;;;1.88;;
51304;SDS011;37392;50.964;6.952;2023-08-31T09:28:21;6.57;;;2.03;;
51304;SDS011;37392;50.964;6.952;2023-08-31T09:30:51;10.98;;;2.78;;
51304;SDS011;37392;50.964;6.952;2023-08-31T09:33:18;10.25;;;2.25;;
51304;SDS011;37392;50.964;6.952;2023-08-31T09:35:59;5.25;;;2.63;;
51304;SDS011;37392;50.964;6.952;2023-08-31T09:38:26;6.00;;;2.10;;
51304;SDS011;37392;50.964;6.952;2023-08-31T09:40:52;4.10;;;2.20;;
51304;SDS011;37392;50.964;6.952;2023-08-31T09:43:30;6.70;;;2.47;;
51304;SDS011;37392;50.964;6.952;2023-08-31T09:45:56;5.80;;;2.00;;
51304;SDS011;37392;50.964;6.952;2023-08-31T09:48:21;7.65;;;2.33;;
51304;SDS011;37392;50.964;6.952;2023-08-31T09:50:48;7.43;;;2.58;;
51304;SDS011;37392;50.964;6.952;2023-08-31T09:53:16;7.63;;;1.92;;
51304;SDS011;37392;50.964;6.952;2023-08-31T09:55:42;9.68;;;2.80;;
51304;SDS011;37392;50.964;6.952;2023-08-31T09:58:08;7.75;;;2.28;;
51304;SDS011;37392;50.964;6.952;2023-08-31T10:00:35;4.72;;;2.08;;
51304;SDS011;37392;50.964;6.952;2023-08-31T10:03:03;7.88;;;1.90;;
51304;SDS011;37392;50.964;6.952;2023-08-31T10:05:30;8.70;;;2.75;;
51304;SDS011;37392;50.964;6.952;2023-08-31T10:07:57;8.43;;;2.95;;
51304;SDS011;37392;50.964;6.952;2023-08-31T10:10:23;8.88;;;2.05;;
51304;SDS011;37392;50.964;6.952;2023-08-31T10:12:50;4.60;;;2.10;;
51304;SDS011;37392;50.964;6.952;2023-08-31T10:15:17;15.23;;;6.88;;
51304;SDS011;37392;50.964;6.952;2023-08-31T10:17:44;11.02;;;3.80;;
51304;SDS011;37392;50.964;6.952;2023-08-31T10:20:11;6.65;;;2.55;;
51304;SDS011;37392;50.964;6.952;2023-08-31T10:22:40;7.03;;;2.45;;
51304;SDS011;37392;50.964;6.952;2023-08-31T10:25:07;5.07;;;2.42;;
51304;SDS011;37392;50.964;6.952;2023-08-31T10:27:40;7.47;;;2.97;;
51304;SDS011;37392;50.964;6.952;2023-08-31T10:30:24;6.88;;;2.53;;
51304;SDS011;37392;50.964;6.952;2023-08-31T10:35:41;5.28;;;1.88;;
51304;SDS011;37392;50.964;6.952;2023-08-31T10:38:25;5.38;;;2.55;;
51304;SDS011;37392;50.964;6.952;2023-08-31T10:51:43;10.40;;;2.00;;
51304;SDS011;37392;50.964;6.952;2023-08-31T10:54:11;3.42;;;1.98;;
51304;SDS011;37392;50.964;6.952;2023-08-31T10:59:19;8.55;;;2.83;;
51304;SDS011;37392;50.964;6.952;2023-08-31T11:01:55;4.78;;;1.67;;
51304;SDS011;37392;50.964;6.952;2023-08-31T11:04:28;5.38;;;1.77;;
51304;SDS011;37392;50.964;6.952;2023-08-31T11:09:50;6.93;;;2.67;;
51304;SDS011;37392;50.964;6.952;2023-08-31T11:12:16;6.82;;;1.73;;
51304;SDS011;37392;50.964;6.952;2023-08-31T11:14:42;6.28;;;2.13;;
51304;SDS011;37392;50.964;6.952;2023-08-31T11:17:08;12.38;;;2.47;;
51304;SDS011;37392;50.964;6.952;2023-08-31T11:19:34;9.13;;;1.80;;
51304;SDS011;37392;50.964;6.952;2023-08-31T11:22:01;4.25;;;1.60;;
51304;SDS011;37392;50.964;6.952;2023-08-31T11:24:31;9.05;;;1.90;;
51304;SDS011;37392;50.964;6.952;2023-08-31T11:26:57;6.77;;;2.10;;
51304;SDS011;37392;50.964;6.952;2023-08-31T11:29:23;11.60;;;2.10;;
51304;SDS011;37392;50.964;6.952;2023-08-31T11:31:49;6.65;;;2.75;;
51304;SDS011;37392;50.964;6.952;2023-08-31T11:34:15;10.48;;;3.03;;
51304;SDS011;37392;50.964;6.952;2023-08-31T11:36:42;11.00;;;2.50;;
51304;SDS011;37392;50.964;6.952;2023-08-31T11:39:10;9.18;;;3.28;;
51304;SDS011;37392;50.964;6.952;2023-08-31T11:41:36;5.40;;;2.47;;
51304;SDS011;37392;50.964;6.952;2023-08-31T11:44:07;10.48;;;2.08;;
51304;SDS011;37392;50.964;6.952;2023-08-31T11:46:38;8.10;;;1.95;;
51304;SDS011;37392;50.964;6.952;2023-08-31T11:49:06;11.90;;;2.25;;
51304;SDS011;37392;50.964;6.952;2023-08-31T11:51:33;6.90;;;2.83;;
51304;SDS011;37392;50.964;6.952;2023-08-31T11:54:03;8.77;;;2.72;;
51304;SDS011;37392;50.964;6.952;2023-08-31T11:56:42;9.88;;;2.28;;
51304;SDS011;37392;50.964;6.952;2023-08-31T11:59:11;7.80;;;2.20;;
51304;SDS011;37392;50.964;6.952;2023-08-31T12:01:39;10.38;;;3.83;;
51304;SDS011;37392;50.964;6.952;2023-08-31T12:04:13;6.28;;;2.97;;
51304;SDS011;37392;50.964;6.952;2023-08-31T12:06:51;8.70;;;3.60;;
51304;SDS011;37392;50.964;6.952;2023-08-31T12:09:20;3.60;;;1.50;;
51304;SDS011;37392;50.964;6.952;2023-08-31T12:11:50;7.13;;;1.70;;
51304;SDS011;37392;50.964;6.952;2023-08-31T12:14:20;5.88;;;2.70;;
51304;SDS011;37392;50.964;6.952;2023-08-31T12:16:49;7.15;;;3.40;;
51304;SDS011;37392;50.964;6.952;2023-08-31T12:19:16;4.40;;;2.13;;
51304;SDS011;37392;50.964;6.952;2023-08-31T12:21:44;9.27;;;2.58;;
51304;SDS011;37392;50.964;6.952;2023-08-31T12:24:11;7.40;;;2.45;;
51304;SDS011;37392;50.964;6.952;2023-08-31T12:26:37;4.20;;;1.60;;
51304;SDS011;37392;50.964;6.952;2023-08-31T12:29:03;6.05;;;2.15;;
51304;SDS011;37392;50.964;6.952;2023-08-31T12:31:32;5.18;;;2.90;;
51304;SDS011;37392;50.964;6.952;2023-08-31T12:33:58;12.95;;;2.67;;
51304;SDS011;37392;50.964;6.952;2023-08-31T12:36:25;10.82;;;2.72;;
51304;SDS011;37392;50.964;6.952;2023-08-31T12:38:51;9.45;;;2.85;;
51304;SDS011;37392;50.964;6.952;2023-08-31T12:41:17;7.57;;;2.83;;
51304;SDS011;37392;50.964;6.952;2023-08-31T12:43:43;7.00;;;2.67;;
51304;SDS011;37392;50.964;6.952;2023-08-31T12:46:08;6.25;;;2.47;;
51304;SDS011;37392;50.964;6.952;2023-08-31T12:48:34;12.80;;;2.72;;
51304;SDS011;37392;50.964;6.952;2023-08-31T12:51:00;5.88;;;1.98;;
51304;SDS011;37392;50.964;6.952;2023-08-31T12:53:26;8.40;;;2.25;;
51304;SDS011;37392;50.964;6.952;2023-08-31T12:55:52;8.45;;;2.67;;
51304;SDS011;37392;50.964;6.952;2023-08-31T12:58:19;5.97;;;3.30;;
51304;SDS011;37392;50.964;6.952;2023-08-31T13:00:45;9.65;;;2.22;;
51304;SDS011;37392;50.964;6.952;2023-08-31T13:03:12;7.45;;;2.88;;
51304;SDS011;37392;50.964;6.952;2023-08-31T13:05:39;11.07;;;4.13;;
51304;SDS011;37392;50.964;6.952;2023-08-31T13:08:05;6.18;;;2.03;;
51304;SDS011;37392;50.964;6.952;2023-08-31T13:10:34;5.32;;;2.40;;
51304;SDS011;37392;50.964;6.952;2023-08-31T13:13:00;9.10;;;2.38;;
51304;SDS011;37392;50.964;6.952;2023-08-31T13:15:25;9.50;;;2.78;;
51304;SDS011;37392;50.964;6.952;2023-08-31T13:17:51;6.40;;;1.83;;
51304;SDS011;37392;50.964;6.952;2023-08-31T13:20:17;4.90;;;2.08;;
51304;SDS011;37392;50.964;6.952;2023-08-31T13:22:42;6.25;;;1.83;;
51304;SDS011;37392;50.964;6.952;2023-08-31T13:25:08;8.57;;;2.50;;
51304;SDS011;37392;50.964;6.952;2023-08-31T13:27:34;11.00;;;5.45;;
51304;SDS011;37392;50.964;6.952;2023-08-31T13:29:59;10.00;;;3.20;;
51304;SDS011;37392;50.964;6.952;2023-08-31T13:32:25;8.60;;;2.58;;
51304;SDS011;37392;50.964;6.952;2023-08-31T13:34:51;18.02;;;2.78;;
51304;SDS011;37392;50.964;6.952;2023-08-31T13:37:18;18.33;;;4.32;;
51304;SDS011;37392;50.964;6.952;2023-08-31T13:39:44;8.45;;;2.65;;
51304;SDS011;37392;50.964;6.952;2023-08-31T13:42:09;11.07;;;2.47;;
51304;SDS011;37392;50.964;6.952;2023-08-31T13:44:35;9.98;;;2.92;;
51304;SDS011;37392;50.964;6.952;2023-08-31T13:47:01;32.25;;;4.70;;
51304;SDS011;37392;50.964;6.952;2023-08-31T13:49:28;18.73;;;3.20;;
51304;SDS011;37392;50.964;6.952;2023-08-31T13:51:55;9.07;;;2.42;;
51304;SDS011;37392;50.964;6.952;2023-08-31T13:54:21;6.32;;;2.30;;
51304;SDS011;37392;50.964;6.952;2023-08-31T13:56:46;8.82;;;2.30;;
51304;SDS011;37392;50.964;6.952;2023-08-31T13:59:15;9.20;;;2.45;;
51304;SDS011;37392;50.964;6.952;2023-08-31T14:01:40;12.98;;;2.17;;
51304;SDS011;37392;50.964;6.952;2023-08-31T14:04:06;15.38;;;3.10;;
51304;SDS011;37392;50.964;6.952;2023-08-31T14:06:31;9.30;;;1.92;;
51304;SDS011;37392;50.964;6.952;2023-08-31T14:08:57;6.53;;;2.63;;
51304;SDS011;37392;50.964;6.952;2023-08-31T14:11:22;12.77;;;2.50;;
51304;SDS011;37392;50.964;6.952;2023-08-31T14:13:48;6.85;;;2.20;;
51304;SDS011;37392;50.964;6.952;2023-08-31T14:16:14;9.15;;;2.35;;
51304;SDS011;37392;50.964;6.952;2023-08-31T14:18:39;10.73;;;2.63;;
51304;SDS011;37392;50.964;6.952;2023-08-31T14:21:05;7.35;;;2.50;;
51304;SDS011;37392;50.964;6.952;2023-08-31T14:23:31;10.18;;;2.75;;
51304;SDS011;37392;50.964;6.952;2023-08-31T14:26:01;7.60;;;1.88;;
51304;SDS011;37392;50.964;6.952;2023-08-31T14:28:28;10.48;;;2.25;;
51304;SDS011;37392;50.964;6.952;2023-08-31T14:30:53;4.45;;;2.17;;
51304;SDS011;37392;50.964;6.952;2023-08-31T14:33:19;9.32;;;2.60;;
51304;SDS011;37392;50.964;6.952;2023-08-31T14:35:44;5.47;;;1.75;;
51304;SDS011;37392;50.964;6.952;2023-08-31T14:38:10;4.10;;;2.03;;
51304;SDS011;37392;50.964;6.952;2023-08-31T14:40:40;9.75;;;2.40;;
51304;SDS011;37392;50.964;6.952;2023-08-31T14:43:06;8.00;;;4.63;;
51304;SDS011;37392;50.964;6.952;2023-08-31T14:45:32;7.05;;;2.22;;
51304;SDS011;37392;50.964;6.952;2023-08-31T14:47:57;5.22;;;2.28;;
51304;SDS011;37392;50.964;6.952;2023-08-31T14:50:23;7.97;;;1.83;;
51304;SDS011;37392;50.964;6.952;2023-08-31T14:52:48;7.70;;;3.10;;
51304;SDS011;37392;50.964;6.952;2023-08-31T14:55:14;3.83;;;2.03;;
51304;SDS011;37392;50.964;6.952;2023-08-31T14:57:40;7.35;;;2.47;;
51304;SDS011;37392;50.964;6.952;2023-08-31T15:00:07;7.82;;;2.15;;
51304;SDS011;37392;50.964;6.952;2023-08-31T15:02:34;8.48;;;2.22;;
51304;SDS011;37392;50.964;6.952;2023-08-31T15:04:59;6.72;;;2.03;;
51304;SDS011;37392;50.964;6.952;2023-08-31T15:07:25;11.23;;;3.15;;
51304;SDS011;37392;50.964;6.952;2023-08-31T15:09:51;6.68;;;2.70;;
51304;SDS011;37392;50.964;6.952;2023-08-31T15:12:17;13.05;;;2.63;;
51304;SDS011;37392;50.964;6.952;2023-08-31T15:14:43;5.80;;;2.42;;
51304;SDS011;37392;50.964;6.952;2023-08-31T15:17:08;8.50;;;2.45;;